Time;durP1;ratioP1;P1;durP2;ratioP2;P2;SDS_P1;SDS_P2;PMS_P1;PMS_P2;Temp;Humidity;BMP_temperature;BMP_pressure;BME280_temperature;BME280_humidity;BME280_pressure;Samples;Min_cycle;Max_cycle;Signal;HPM_P1;HPM_P2
2023/12/09 00:00:48;;;;;;;60.88;24.60;;;7.80;99.90;;;;;;5033382;28;20041;-70
2023/12/09 00:03:14;;;;;;;59.50;22.42;;;7.80;99.90;;;;;;5016422;28;20053;-70
2023/12/09 00:05:40;;;;;;;82.90;25.67;;;7.80;99.90;;;;;;5034541;28;20045;-70
2023/12/09 00:08:05;;;;;;;63.90;26.50;;;7.80;99.90;;;;;;5033875;28;20081;-70
2023/12/09 00:10:31;;;;;;;69.57;23.02;;;7.90;99.90;;;;;;5032856;28;20041;-69
2023/12/09 00:12:57;;;;;;;62.67;21.50;;;7.90;99.90;;;;;;5032671;28;20483;-72
2023/12/09 00:15:23;;;;;;;72.57;24.83;;;7.90;99.90;;;;;;5032481;28;20122;-69
2023/12/09 00:17:48;;;;;;;60.53;22.20;;;7.90;99.90;;;;;;5033985;28;20077;-70
2023/12/09 00:20:14;;;;;;;77.63;24.67;;;7.90;99.90;;;;;;5033194;28;20045;-70
2023/12/09 00:22:41;;;;;;;72.40;26.30;;;7.90;99.90;;;;;;5032616;28;20128;-70
2023/12/09 00:25:07;;;;;;;75.50;26.02;;;7.90;99.90;;;;;;5032396;28;20049;-71
2023/12/09 00:27:34;;;;;;;55.33;21.80;;;7.90;99.90;;;;;;5033114;28;20041;-70
2023/12/09 00:30:00;;;;;;;71.70;26.38;;;7.90;99.90;;;;;;5034306;28;20047;-70
2023/12/09 00:32:26;;;;;;;75.80;24.70;;;8.00;99.90;;;;;;5016108;28;20140;-71
2023/12/09 00:34:51;;;;;;;66.18;24.27;;;8.00;99.90;;;;;;5034429;28;20053;-71
2023/12/09 00:37:17;;;;;;;68.38;23.80;;;8.00;99.90;;;;;;5033776;28;20057;-71
2023/12/09 00:39:43;;;;;;;58.33;20.65;;;8.00;99.90;;;;;;5032955;28;20127;-71
2023/12/09 00:42:10;;;;;;;69.72;23.88;;;8.00;99.90;;;;;;5032582;28;20045;-71
2023/12/09 00:44:36;;;;;;;72.25;25.50;;;8.00;99.90;;;;;;5034054;28;20057;-71
2023/12/09 00:47:02;;;;;;;62.58;23.95;;;8.00;99.90;;;;;;5034009;28;20128;-71
2023/12/09 00:49:27;;;;;;;71.88;24.48;;;8.00;99.90;;;;;;5033450;28;20681;-70
2023/12/09 00:51:53;;;;;;;62.17;23.88;;;8.00;99.90;;;;;;5034316;28;20053;-71
2023/12/09 00:54:19;;;;;;;69.78;24.65;;;8.00;99.90;;;;;;5033656;28;20049;-71
2023/12/09 00:56:44;;;;;;;80.70;25.60;;;8.00;99.90;;;;;;5032620;28;20052;-71
2023/12/09 00:59:10;;;;;;;76.45;25.73;;;8.00;99.90;;;;;;5032473;28;20058;-71
2023/12/09 01:01:36;;;;;;;41.20;16.70;;;8.00;99.90;;;;;;5033306;28;20084;-70
2023/12/09 01:04:02;;;;;;;74.70;23.17;;;8.00;99.90;;;;;;5033385;28;20056;-71
2023/12/09 01:06:28;;;;;;;68.63;21.55;;;8.00;99.90;;;;;;5031787;28;20057;-71
2023/12/09 01:08:54;;;;;;;73.88;24.58;;;8.10;99.90;;;;;;5033337;28;20046;-71
2023/12/09 01:11:20;;;;;;;66.45;23.17;;;8.00;99.90;;;;;;5031651;28;20052;-70
2023/12/09 01:13:46;;;;;;;62.55;23.00;;;8.00;99.90;;;;;;5016280;28;20049;-70
2023/12/09 01:16:12;;;;;;;70.88;24.20;;;8.00;99.90;;;;;;5033636;28;20041;-71
2023/12/09 01:18:37;;;;;;;63.88;24.83;;;8.10;99.90;;;;;;5033239;28;20080;-71
2023/12/09 01:21:03;;;;;;;67.70;22.25;;;8.00;99.90;;;;;;5032239;28;20056;-70
2023/12/09 01:23:29;;;;;;;66.95;24.20;;;8.00;99.90;;;;;;5033117;28;20042;-70
2023/12/09 01:25:54;;;;;;;64.97;24.23;;;8.00;99.90;;;;;;5033297;28;20045;-70
2023/12/09 01:28:20;;;;;;;65.60;25.02;;;8.00;99.90;;;;;;5033242;28;20051;-71
2023/12/09 01:30:46;;;;;;;66.40;22.88;;;8.10;99.90;;;;;;5032048;28;20479;-71
2023/12/09 01:33:11;;;;;;;66.88;24.23;;;8.10;99.90;;;;;;5033093;28;20491;-70
2023/12/09 01:35:37;;;;;;;55.13;20.52;;;8.00;99.90;;;;;;5032593;28;20479;-70
2023/12/09 01:38:03;;;;;;;56.67;22.45;;;8.00;99.90;;;;;;5032341;28;20046;-71
2023/12/09 01:40:28;;;;;;;62.63;22.05;;;8.10;99.90;;;;;;5031712;28;20140;-70
2023/12/09 01:42:54;;;;;;;61.35;22.45;;;8.10;99.90;;;;;;5032466;28;20407;-70
2023/12/09 01:45:20;;;;;;;67.72;24.05;;;8.10;99.90;;;;;;5032793;28;20148;-71
2023/12/09 01:47:47;;;;;;;62.10;21.90;;;8.00;99.90;;;;;;5033065;28;20589;-70
2023/12/09 01:50:14;;;;;;;50.42;19.42;;;8.10;99.90;;;;;;5032762;28;20060;-70
2023/12/09 01:52:41;;;;;;;65.63;23.45;;;8.10;99.90;;;;;;5033042;28;20042;-71
2023/12/09 01:55:09;;;;;;;66.30;22.83;;;8.10;99.90;;;;;;5031976;28;20049;-71
2023/12/09 01:57:35;;;;;;;57.08;23.02;;;8.10;99.90;;;;;;5032396;28;20136;-71
2023/12/09 02:00:03;;;;;;;58.70;20.25;;;8.10;99.90;;;;;;5031532;28;20455;-70
2023/12/09 02:02:29;;;;;;;62.25;20.48;;;8.10;99.90;;;;;;5032243;28;20124;-71
2023/12/09 02:04:56;;;;;;;61.15;21.77;;;8.10;99.90;;;;;;5032865;28;20041;-71
2023/12/09 02:07:22;;;;;;;66.25;22.52;;;8.10;99.90;;;;;;5032520;28;20088;-71
2023/12/09 02:09:48;;;;;;;56.92;21.67;;;8.20;99.90;;;;;;5032322;28;20080;-71
2023/12/09 02:12:31;;;;;;;59.65;21.27;;;8.10;99.90;;;;;;5031598;28;20048;-70
2023/12/09 02:15:03;;;;;;;55.30;20.13;;;8.10;99.90;;;;;;5032749;28;20116;-71
2023/12/09 02:17:39;;;;;;;52.75;19.58;;;8.10;99.90;;;;;;5032484;28;20518;-70
2023/12/09 02:20:07;;;;;;;65.32;20.80;;;8.20;99.90;;;;;;5032903;28;20399;-71
2023/12/09 02:22:32;;;;;;;52.05;19.83;;;8.10;99.90;;;;;;5032185;28;20057;-70
2023/12/09 02:24:58;;;;;;;59.65;20.13;;;8.10;99.90;;;;;;5032095;28;20075;-71
2023/12/09 02:27:56;;;;;;;60.95;20.38;;;8.20;99.90;;;;;;5014482;28;20091;-71
2023/12/09 02:30:31;;;;;;;58.97;21.20;;;8.20;99.90;;;;;;5026817;28;20100;-71
2023/12/09 02:32:58;;;;;;;59.97;19.98;;;8.20;99.90;;;;;;5032330;28;20451;-70
2023/12/09 02:35:26;;;;;;;53.20;19.48;;;8.20;99.90;;;;;;5031138;28;20049;-70
2023/12/09 02:37:53;;;;;;;59.00;19.60;;;8.20;99.90;;;;;;5031315;28;20390;-70
2023/12/09 02:40:20;;;;;;;56.97;20.27;;;8.20;99.90;;;;;;5032330;28;20095;-70
2023/12/09 02:42:47;;;;;;;52.45;20.20;;;8.20;99.90;;;;;;5030480;28;20100;-70
2023/12/09 02:45:12;;;;;;;51.83;21.48;;;8.20;99.90;;;;;;5032052;28;20065;-70
2023/12/09 02:47:38;;;;;;;50.15;20.17;;;8.20;99.90;;;;;;5032062;28;20054;-70
2023/12/09 02:50:04;;;;;;;46.85;18.80;;;8.20;99.90;;;;;;5032348;28;20387;-70
2023/12/09 02:52:30;;;;;;;54.75;19.33;;;8.20;99.90;;;;;;5031919;28;20081;-70
2023/12/09 02:54:56;;;;;;;48.72;18.20;;;8.20;99.90;;;;;;5032414;28;20519;-70
2023/12/09 02:57:21;;;;;;;52.80;19.45;;;8.30;99.90;;;;;;5032160;28;20049;-70
2023/12/09 02:59:47;;;;;;;49.50;17.65;;;8.20;99.90;;;;;;5031054;28;20213;-70
2023/12/09 03:02:13;;;;;;;45.20;17.58;;;8.20;99.90;;;;;;5032401;28;20052;-70
2023/12/09 03:04:38;;;;;;;57.85;20.92;;;8.20;99.90;;;;;;5031535;28;20057;-70
2023/12/09 03:07:04;;;;;;;51.42;19.08;;;8.10;99.90;;;;;;5032311;28;20045;-70
2023/12/09 03:09:30;;;;;;;55.85;19.65;;;8.20;99.90;;;;;;5031263;28;20409;-70
2023/12/09 03:11:55;;;;;;;48.00;19.00;;;8.20;99.90;;;;;;5031297;28;20060;-70
2023/12/09 03:14:22;;;;;;;53.33;17.98;;;8.20;99.90;;;;;;5032149;28;20046;-70
2023/12/09 03:16:48;;;;;;;48.38;18.70;;;8.20;99.90;;;;;;5030529;28;20128;-70
2023/12/09 03:19:13;;;;;;;45.22;17.10;;;8.20;99.90;;;;;;5031276;28;20128;-70
2023/12/09 03:21:39;;;;;;;51.10;18.27;;;8.20;99.90;;;;;;5032097;28;20104;-70
2023/12/09 03:24:05;;;;;;;48.45;18.52;;;8.20;99.90;;;;;;5034387;28;20099;-70
2023/12/09 03:26:31;;;;;;;55.25;18.33;;;8.20;99.90;;;;;;5035018;28;20044;-71
2023/12/09 03:28:57;;;;;;;49.75;15.77;;;8.20;99.90;;;;;;5035077;28;20045;-70
2023/12/09 03:31:22;;;;;;;42.65;16.88;;;8.20;99.90;;;;;;5035396;28;20038;-70
2023/12/09 03:33:48;;;;;;;50.95;16.88;;;8.20;99.90;;;;;;5035008;28;20091;-70
2023/12/09 03:36:14;;;;;;;43.03;14.98;;;8.20;99.90;;;;;;5035434;28;20109;-69
2023/12/09 03:38:41;;;;;;;47.47;17.67;;;8.30;99.90;;;;;;5033919;28;20041;-70
2023/12/09 03:41:07;;;;;;;43.75;17.08;;;8.20;99.90;;;;;;5035074;28;20037;-70
2023/12/09 03:43:33;;;;;;;41.60;17.75;;;8.20;99.90;;;;;;5034491;28;20064;-70
2023/12/09 03:45:59;;;;;;;48.05;17.15;;;8.20;99.90;;;;;;5017523;28;20057;-69
2023/12/09 03:48:29;;;;;;;50.42;15.50;;;8.20;99.90;;;;;;5034504;28;20052;-69
2023/12/09 03:50:55;;;;;;;36.20;15.10;;;8.20;99.90;;;;;;5034850;28;20120;-69
2023/12/09 03:53:21;;;;;;;42.38;15.75;;;8.10;99.90;;;;;;5035098;28;20067;-70
2023/12/09 03:55:49;;;;;;;43.28;17.08;;;8.10;99.90;;;;;;5034626;28;20132;-70
2023/12/09 03:58:15;;;;;;;43.50;15.88;;;8.10;99.90;;;;;;5035231;28;20050;-71
2023/12/09 04:00:40;;;;;;;39.97;14.48;;;8.00;99.90;;;;;;5034578;28;20051;-69
2023/12/09 04:03:06;;;;;;;44.63;15.75;;;8.10;99.90;;;;;;5034927;28;20386;-71
2023/12/09 04:05:31;;;;;;;47.00;16.25;;;8.10;99.90;;;;;;5034844;28;20049;-70
2023/12/09 04:07:57;;;;;;;38.50;15.05;;;8.00;99.90;;;;;;5033440;28;20048;-69
2023/12/09 04:10:23;;;;;;;45.45;15.60;;;8.00;99.90;;;;;;5034837;28;20132;-69
2023/12/09 04:12:48;;;;;;;36.70;14.90;;;8.10;99.90;;;;;;5034594;28;20115;-70
2023/12/09 04:15:14;;;;;;;35.47;14.80;;;8.00;99.90;;;;;;5035001;28;20056;-70
2023/12/09 04:17:40;;;;;;;41.58;15.30;;;8.10;99.90;;;;;;5034641;28;20042;-70
2023/12/09 04:20:09;;;;;;;38.72;15.18;;;8.10;99.90;;;;;;5017503;28;20121;-70
2023/12/09 04:22:38;;;;;;;38.47;15.68;;;8.10;99.90;;;;;;5033809;28;20080;-70
2023/12/09 04:25:06;;;;;;;44.85;15.75;;;8.10;99.90;;;;;;5017113;28;20084;-70
2023/12/09 04:27:32;;;;;;;44.15;15.85;;;8.10;99.90;;;;;;5033634;28;20049;-70
2023/12/09 04:29:58;;;;;;;37.75;16.42;;;8.10;99.90;;;;;;5032803;28;20049;-70
2023/12/09 04:32:24;;;;;;;52.83;16.90;;;8.10;99.90;;;;;;5033973;28;20167;-70
2023/12/09 04:34:50;;;;;;;42.47;16.38;;;8.10;99.90;;;;;;5033333;28;20045;-70
2023/12/09 04:37:15;;;;;;;32.42;13.52;;;8.00;99.90;;;;;;5033169;28;20110;-70
2023/12/09 04:39:41;;;;;;;35.92;14.32;;;8.00;99.90;;;;;;5032656;28;20041;-70
2023/12/09 04:42:07;;;;;;;38.72;14.40;;;8.10;99.90;;;;;;5033008;28;20049;-71
2023/12/09 04:44:32;;;;;;;38.63;14.20;;;8.10;99.90;;;;;;5032641;28;20050;-69
2023/12/09 04:46:58;;;;;;;33.38;14.90;;;8.10;99.90;;;;;;5033776;28;20042;-70
2023/12/09 04:49:24;;;;;;;32.80;13.70;;;8.10;99.90;;;;;;5034046;28;20471;-71
2023/12/09 04:51:49;;;;;;;40.67;15.65;;;8.10;99.90;;;;;;5033826;28;20045;-70
2023/12/09 04:54:15;;;;;;;41.33;14.43;;;8.10;99.90;;;;;;5034237;28;20045;-71
2023/12/09 04:56:41;;;;;;;28.88;11.52;;;8.10;99.90;;;;;;5034040;28;20392;-70
2023/12/09 04:59:06;;;;;;;33.03;12.82;;;8.10;99.90;;;;;;5033495;28;20475;-70
2023/12/09 05:01:32;;;;;;;35.40;14.27;;;8.10;99.90;;;;;;5034433;28;20045;-70
2023/12/09 05:03:58;;;;;;;38.40;13.43;;;8.10;99.90;;;;;;5032452;28;20057;-70
2023/12/09 05:06:23;;;;;;;25.65;10.50;;;8.10;99.90;;;;;;5033689;28;20137;-71
2023/12/09 05:08:50;;;;;;;43.38;13.55;;;8.10;99.90;;;;;;5032550;28;20049;-70
2023/12/09 05:11:15;;;;;;;33.80;12.73;;;8.10;99.90;;;;;;5032474;28;20053;-70
2023/12/09 05:13:41;;;;;;;40.97;15.60;;;8.10;99.90;;;;;;5015979;28;20050;-70
2023/12/09 05:16:07;;;;;;;34.17;14.50;;;8.10;99.90;;;;;;5031914;28;20098;-70
2023/12/09 05:18:34;;;;;;;38.08;13.73;;;8.10;99.90;;;;;;5033407;28;20084;-70
2023/12/09 05:21:00;;;;;;;35.05;14.90;;;8.10;99.90;;;;;;5032986;28;20124;-70
2023/12/09 05:23:26;;;;;;;31.60;13.50;;;8.10;99.90;;;;;;5033320;28;20143;-70
2023/12/09 05:25:52;;;;;;;28.40;12.50;;;8.10;99.90;;;;;;5032946;28;20081;-70
2023/12/09 05:28:18;;;;;;;39.83;13.57;;;8.10;99.90;;;;;;5033493;28;20045;-70
2023/12/09 05:30:43;;;;;;;43.55;13.50;;;8.10;99.90;;;;;;5031577;28;20186;-70
2023/12/09 05:33:09;;;;;;;25.92;10.07;;;8.10;99.90;;;;;;5032651;28;20049;-70
2023/12/09 05:35:36;;;;;;;37.28;13.20;;;8.10;99.90;;;;;;5031868;28;20128;-70
2023/12/09 05:38:01;;;;;;;41.63;13.77;;;8.10;99.90;;;;;;5031796;28;20049;-70
2023/12/09 05:40:27;;;;;;;31.85;12.35;;;8.10;99.90;;;;;;5033124;28;20132;-70
2023/12/09 05:42:53;;;;;;;36.78;12.82;;;8.10;99.90;;;;;;5032500;28;20045;-71
2023/12/09 05:45:18;;;;;;;40.45;14.15;;;8.10;99.90;;;;;;5032410;28;20053;-71
2023/12/09 05:47:44;;;;;;;35.67;12.75;;;8.10;99.90;;;;;;5033142;28;20364;-70
2023/12/09 05:50:10;;;;;;;30.42;12.98;;;8.20;99.90;;;;;;5031930;28;20125;-70
2023/12/09 05:52:36;;;;;;;36.72;13.55;;;8.10;99.90;;;;;;5033254;28;20148;-70
2023/12/09 05:55:01;;;;;;;31.17;11.70;;;8.10;99.90;;;;;;5032680;28;20132;-70
2023/12/09 05:57:27;;;;;;;32.78;12.35;;;8.10;99.90;;;;;;5032813;28;20053;-71
2023/12/09 05:59:53;;;;;;;47.67;9.13;;;8.00;99.90;;;;;;5032020;28;20049;-72
2023/12/09 06:02:18;;;;;;;35.97;12.20;;;8.00;99.90;;;;;;5031777;28;20092;-70
2023/12/09 06:04:44;;;;;;;35.00;12.63;;;8.10;99.90;;;;;;5031857;28;20049;-70
2023/12/09 06:07:10;;;;;;;32.60;11.10;;;8.10;99.90;;;;;;5033083;28;20045;-70
2023/12/09 06:09:36;;;;;;;37.17;12.45;;;8.10;99.90;;;;;;5032162;28;20052;-70
2023/12/09 06:12:01;;;;;;;40.47;13.30;;;8.10;99.90;;;;;;5032546;28;20045;-70
2023/12/09 06:14:27;;;;;;;35.95;13.13;;;8.10;99.90;;;;;;5032012;28;20049;-70
2023/12/09 06:16:53;;;;;;;35.85;12.15;;;8.10;99.90;;;;;;5032386;28;20046;-70
2023/12/09 06:19:18;;;;;;;35.97;12.88;;;8.10;99.90;;;;;;5031541;28;20115;-70
2023/12/09 06:21:44;;;;;;;46.10;13.25;;;8.10;99.90;;;;;;5032990;28;20042;-71
2023/12/09 06:24:11;;;;;;;39.20;13.05;;;8.20;99.90;;;;;;5031065;28;20122;-71
2023/12/09 06:26:44;;;;;;;40.83;11.82;;;8.10;99.90;;;;;;5032491;28;20092;-71
2023/12/09 06:29:14;;;;;;;38.63;11.45;;;8.10;99.90;;;;;;5030839;28;20560;-71
2023/12/09 06:31:40;;;;;;;39.40;11.43;;;8.10;99.90;;;;;;5032487;28;20071;-71
2023/12/09 06:34:06;;;;;;;36.78;10.80;;;8.20;99.90;;;;;;5031899;28;20045;-71
2023/12/09 06:36:31;;;;;;;34.63;10.20;;;8.20;99.90;;;;;;5031237;28;20042;-71
2023/12/09 06:38:57;;;;;;;34.20;11.38;;;8.20;99.90;;;;;;5032056;28;20438;-71
2023/12/09 06:41:23;;;;;;;23.27;8.43;;;8.20;99.90;;;;;;5031094;28;20052;-71
2023/12/09 06:43:49;;;;;;;25.90;10.15;;;8.20;99.90;;;;;;5031745;28;20060;-70
2023/12/09 06:46:14;;;;;;;31.48;10.68;;;8.10;99.90;;;;;;5014295;28;20176;-70
2023/12/09 06:48:40;;;;;;;37.35;11.30;;;8.10;99.90;;;;;;5032109;28;20115;-70
2023/12/09 06:51:14;;;;;;;33.25;11.43;;;8.20;99.90;;;;;;5031902;28;20046;-71
2023/12/09 06:53:39;;;;;;;31.70;10.52;;;8.20;99.90;;;;;;5032122;28;20056;-71
2023/12/09 06:56:06;;;;;;;26.92;10.75;;;8.10;99.90;;;;;;5031176;28;20421;-71
2023/12/09 06:58:32;;;;;;;28.27;10.88;;;8.20;99.90;;;;;;5018348;28;20052;-70
2023/12/09 07:00:57;;;;;;;28.83;10.23;;;8.20;99.90;;;;;;5034997;28;20056;-70
2023/12/09 07:03:23;;;;;;;31.45;8.68;;;8.20;99.90;;;;;;5034499;28;20148;-70
2023/12/09 07:05:49;;;;;;;32.00;10.45;;;8.10;99.90;;;;;;5035012;28;20479;-69
2023/12/09 07:08:14;;;;;;;23.65;10.13;;;8.10;99.90;;;;;;5035282;28;20124;-69
2023/12/09 07:10:46;;;;;;;29.35;10.32;;;8.10;99.90;;;;;;5035736;28;20049;-69
2023/12/09 07:13:12;;;;;;;21.52;7.55;;;8.00;99.90;;;;;;5017894;28;20084;-70
2023/12/09 07:15:38;;;;;;;29.00;10.55;;;8.10;99.90;;;;;;5035548;28;20045;-70
2023/12/09 07:18:04;;;;;;;30.30;10.35;;;8.00;99.90;;;;;;5017490;28;20463;-70
2023/12/09 07:20:30;;;;;;;26.55;9.70;;;8.00;99.90;;;;;;5035358;28;20072;-70
2023/12/09 07:22:55;;;;;;;21.08;8.50;;;8.00;99.90;;;;;;5034580;28;20479;-70
2023/12/09 07:25:23;;;;;;;30.92;10.23;;;8.10;99.90;;;;;;5017700;28;20049;-70
2023/12/09 07:27:50;;;;;;;29.52;10.07;;;8.00;99.90;;;;;;5034722;28;20057;-70
2023/12/09 07:30:16;;;;;;;24.30;8.48;;;8.00;99.90;;;;;;5034056;28;20086;-70
2023/12/09 07:32:42;;;;;;;24.98;8.73;;;8.00;99.90;;;;;;5036030;28;20080;-70
2023/12/09 07:35:08;;;;;;;25.63;10.10;;;8.00;99.90;;;;;;5035141;28;20486;-70
2023/12/09 07:37:34;;;;;;;23.50;10.43;;;8.00;99.90;;;;;;5035069;28;20509;-70
2023/12/09 07:39:59;;;;;;;26.80;10.52;;;8.00;99.90;;;;;;5034425;28;20050;-70
2023/12/09 07:42:25;;;;;;;25.35;10.27;;;8.00;99.90;;;;;;5034896;28;20455;-70
2023/12/09 07:44:51;;;;;;;18.98;8.18;;;8.00;99.90;;;;;;5035373;28;20053;-71
2023/12/09 07:47:16;;;;;;;27.65;8.85;;;7.90;99.90;;;;;;5034492;28;20399;-70
2023/12/09 07:49:42;;;;;;;24.33;8.32;;;8.00;99.90;;;;;;5035185;28;20140;-71
2023/12/09 07:52:08;;;;;;;32.42;10.73;;;7.90;99.90;;;;;;5034854;28;20054;-72
2023/12/09 07:54:33;;;;;;;21.80;9.75;;;7.90;99.90;;;;;;5035575;28;20088;-70
2023/12/09 07:56:59;;;;;;;32.08;8.52;;;7.90;99.90;;;;;;5035072;28;20045;-71
2023/12/09 07:59:25;;;;;;;27.30;10.18;;;7.90;99.90;;;;;;4984355;28;20483;-71
2023/12/09 08:01:51;;;;;;;30.90;10.98;;;7.80;99.90;;;;;;5033395;28;20052;-71
2023/12/09 08:04:16;;;;;;;25.55;10.30;;;7.90;99.90;;;;;;5034289;28;20052;-71
2023/12/09 08:06:42;;;;;;;17.75;8.68;;;7.80;99.90;;;;;;5033674;28;20137;-69
2023/12/09 08:09:09;;;;;;;19.52;7.35;;;7.80;99.90;;;;;;5034143;28;20056;-70
2023/12/09 08:11:35;;;;;;;25.00;8.60;;;7.90;99.90;;;;;;5034238;28;20081;-69
2023/12/09 08:14:01;;;;;;;24.17;9.32;;;7.80;99.90;;;;;;5016845;28;20053;-69
2023/12/09 08:16:27;;;;;;;26.92;9.63;;;7.90;99.90;;;;;;5034528;28;20072;-69
2023/12/09 08:18:53;;;;;;;26.88;9.07;;;7.90;99.90;;;;;;5034312;28;20095;-69
2023/12/09 08:21:18;;;;;;;17.92;8.15;;;7.90;99.90;;;;;;5034691;28;20380;-69
2023/12/09 08:23:44;;;;;;;17.17;7.97;;;7.80;99.90;;;;;;5034314;28;20072;-69
2023/12/09 08:26:18;;;;;;;25.52;8.18;;;7.90;99.90;;;;;;5033498;28;20053;-70
2023/12/09 08:28:43;;;;;;;24.20;9.05;;;7.90;99.90;;;;;;5033546;28;20055;-70
2023/12/09 08:31:09;;;;;;;23.13;9.57;;;7.90;99.90;;;;;;5016298;28;20136;-70
2023/12/09 08:33:35;;;;;;;27.88;9.65;;;7.80;99.90;;;;;;5033644;28;20111;-69
2023/12/09 08:36:00;;;;;;;24.20;9.27;;;7.90;99.90;;;;;;5032968;28;20060;-69
2023/12/09 08:38:26;;;;;;;36.90;9.70;;;7.80;99.90;;;;;;5033695;28;20047;-70
2023/12/09 08:40:53;;;;;;;28.63;9.15;;;7.70;99.90;;;;;;5034009;28;20033;-69
2023/12/09 08:43:18;;;;;;;19.48;7.68;;;7.80;99.90;;;;;;5033462;28;20063;-70
2023/12/09 08:45:44;;;;;;;18.85;7.45;;;7.80;99.90;;;;;;5034523;28;20049;-70
2023/12/09 08:48:10;;;;;;;24.05;8.65;;;7.80;99.90;;;;;;5034259;28;20053;-69
2023/12/09 08:50:36;;;;;;;30.90;8.50;;;7.80;99.90;;;;;;5033580;28;20046;-70
2023/12/09 08:53:02;;;;;;;25.08;8.73;;;7.80;99.90;;;;;;5032786;28;20050;-70
2023/12/09 08:55:28;;;;;;;29.58;8.00;;;7.70;99.90;;;;;;5016144;28;20049;-70
2023/12/09 08:57:54;;;;;;;15.10;5.70;;;7.80;99.90;;;;;;5016422;28;20041;-69
2023/12/09 09:00:20;;;;;;;21.85;7.32;;;7.70;99.90;;;;;;5032245;28;20068;-70
2023/12/09 09:02:47;;;;;;;26.50;6.82;;;7.80;99.90;;;;;;5032680;28;20483;-71
2023/12/09 09:05:13;;;;;;;16.73;6.55;;;7.80;99.90;;;;;;5033489;28;20053;-70
2023/12/09 09:07:40;;;;;;;16.92;5.90;;;7.70;99.90;;;;;;5033420;28;20133;-69
2023/12/09 09:10:07;;;;;;;25.55;6.90;;;7.80;99.90;;;;;;5032479;28;20045;-70
2023/12/09 09:12:33;;;;;;;19.05;6.03;;;7.70;99.90;;;;;;5033054;28;20049;-70
2023/12/09 09:14:59;;;;;;;22.73;6.95;;;7.80;99.90;;;;;;5032085;28;20064;-70
2023/12/09 09:17:24;;;;;;;17.27;5.45;;;7.80;99.90;;;;;;5031852;28;20053;-69
2023/12/09 09:19:51;;;;;;;24.42;6.10;;;7.80;99.90;;;;;;5032195;28;20463;-69
2023/12/09 09:22:17;;;;;;;15.38;5.55;;;7.80;99.90;;;;;;5014942;28;20095;-68
2023/12/09 09:24:43;;;;;;;19.50;6.15;;;7.90;99.90;;;;;;5032350;28;20056;-70
2023/12/09 09:27:08;;;;;;;19.17;6.32;;;7.80;99.90;;;;;;5033396;28;20088;-67
2023/12/09 09:29:34;;;;;;;18.75;6.45;;;7.80;99.90;;;;;;5031592;28;20077;-68
2023/12/09 09:32:00;;;;;;;19.98;5.82;;;7.80;99.90;;;;;;5033193;28;20049;-68
2023/12/09 09:34:25;;;;;;;23.38;5.18;;;7.90;99.90;;;;;;5032166;28;20049;-69
2023/12/09 09:36:51;;;;;;;23.52;5.28;;;8.00;99.90;;;;;;5032838;28;20045;-68
2023/12/09 09:39:18;;;;;;;20.77;5.90;;;7.90;99.90;;;;;;5032776;28;20057;-68
2023/12/09 09:42:13;;;;;;;18.65;6.18;;;7.90;99.90;;;;;;5032476;28;20218;-68
2023/12/09 09:44:46;;;;;;;15.73;4.80;;;7.90;99.90;;;;;;5027643;28;20053;-68
2023/12/09 09:47:14;;;;;;;17.97;5.33;;;7.90;99.90;;;;;;5033110;28;20049;-68
2023/12/09 09:49:44;;;;;;;17.55;5.10;;;7.90;99.90;;;;;;5031097;28;20769;-68
2023/12/09 09:52:14;;;;;;;11.23;4.63;;;8.00;99.90;;;;;;5033070;28;20093;-68
2023/12/09 09:54:42;;;;;;;20.95;4.97;;;8.00;99.90;;;;;;5032540;28;20056;-68
2023/12/09 09:57:09;;;;;;;19.17;4.60;;;8.00;99.90;;;;;;5032422;28;20491;-68
2023/12/09 09:59:35;;;;;;;17.92;4.80;;;8.00;99.90;;;;;;5032305;28;20045;-69
2023/12/09 10:02:04;;;;;;;23.10;5.63;;;8.00;99.90;;;;;;5015322;28;20053;-68
2023/12/09 10:04:30;;;;;;;12.50;3.47;;;8.00;99.90;;;;;;5032257;28;20045;-69
2023/12/09 10:06:58;;;;;;;11.77;4.25;;;8.00;99.90;;;;;;5032464;28;20563;-69
2023/12/09 10:09:24;;;;;;;19.50;5.55;;;8.00;99.90;;;;;;5031348;28;20045;-68
2023/12/09 10:11:49;;;;;;;15.05;4.75;;;8.00;99.90;;;;;;5032286;28;20064;-69
2023/12/09 10:14:16;;;;;;;17.63;4.47;;;7.90;99.90;;;;;;5032689;28;20486;-69
2023/12/09 10:16:42;;;;;;;17.77;5.35;;;8.00;99.90;;;;;;5030895;28;20058;-68
2023/12/09 10:19:12;;;;;;;17.45;4.53;;;8.00;99.90;;;;;;5015122;28;20065;-69
2023/12/09 10:21:38;;;;;;;14.55;4.35;;;8.00;99.90;;;;;;5014997;28;20046;-69
2023/12/09 10:24:04;;;;;;;14.32;3.42;;;8.00;99.90;;;;;;5015157;28;20052;-69
2023/12/09 10:26:30;;;;;;;12.07;3.85;;;8.00;99.90;;;;;;5032074;28;20479;-71
2023/12/09 10:28:56;;;;;;;16.70;4.38;;;8.00;99.90;;;;;;5032354;28;20060;-70
2023/12/09 10:31:22;;;;;;;18.77;4.00;;;8.00;99.90;;;;;;5033669;28;20041;-70
2023/12/09 10:33:49;;;;;;;10.82;3.30;;;8.10;99.90;;;;;;5034468;28;20047;-69
2023/12/09 10:36:15;;;;;;;15.35;3.95;;;8.10;99.90;;;;;;5035123;28;20119;-69
2023/12/09 10:38:44;;;;;;;16.65;4.47;;;8.10;99.90;;;;;;5035683;28;20045;-68
2023/12/09 10:41:13;;;;;;;13.95;4.25;;;8.10;99.90;;;;;;5036331;28;20044;-69
2023/12/09 10:43:40;;;;;;;10.82;3.47;;;8.10;99.90;;;;;;5034245;28;20080;-69
2023/12/09 10:46:07;;;;;;;12.48;3.67;;;8.10;99.90;;;;;;5036124;28;20486;-66
2023/12/09 10:48:33;;;;;;;14.98;4.45;;;8.20;99.90;;;;;;5035385;28;20148;-70
2023/12/09 10:50:59;;;;;;;11.45;3.22;;;8.20;99.90;;;;;;5035602;28;20140;-66
2023/12/09 10:53:24;;;;;;;21.50;4.32;;;8.20;99.90;;;;;;5034506;28;20135;-68
2023/12/09 10:55:51;;;;;;;12.23;3.40;;;8.20;99.90;;;;;;5034130;28;20049;-70
2023/12/09 10:58:19;;;;;;;15.05;3.17;;;8.30;99.90;;;;;;5034460;28;20398;-69
2023/12/09 11:00:45;;;;;;;14.23;3.45;;;8.30;99.90;;;;;;5035064;28;20142;-69
2023/12/09 11:03:12;;;;;;;13.32;3.58;;;8.30;99.90;;;;;;5034161;28;20055;-68
2023/12/09 11:05:54;;;;;;;11.73;3.50;;;8.30;99.90;;;;;;5034963;28;20037;-70
2023/12/09 11:08:23;;;;;;;10.07;3.42;;;8.40;99.90;;;;;;5035634;28;20438;-69
2023/12/09 11:10:50;;;;;;;9.55;2.95;;;8.40;99.90;;;;;;5033594;28;20123;-69
2023/12/09 11:13:18;;;;;;;16.85;3.58;;;8.40;99.90;;;;;;5035392;28;20060;-69
2023/12/09 11:15:45;;;;;;;15.73;6.15;;;8.40;99.90;;;;;;5034983;28;20460;-69
2023/12/09 11:18:11;;;;;;;10.60;3.00;;;8.40;99.90;;;;;;5035041;28;20545;-69
2023/12/09 11:20:40;;;;;;;11.38;3.50;;;8.50;99.90;;;;;;5034881;28;20042;-68
2023/12/09 11:23:10;;;;;;;13.07;3.78;;;8.50;99.90;;;;;;5034138;28;20056;-69
2023/12/09 11:25:40;;;;;;;9.93;3.10;;;8.50;99.90;;;;;;5035099;28;20510;-69
2023/12/09 11:28:05;;;;;;;14.10;3.33;;;8.50;99.90;;;;;;5035063;28;20064;-69
2023/12/09 11:30:42;;;;;;;15.25;3.78;;;8.50;99.90;;;;;;5033156;28;20037;-69
2023/12/09 11:33:09;;;;;;;11.75;3.45;;;8.50;99.90;;;;;;5034921;28;20407;-68
2023/12/09 11:35:35;;;;;;;12.27;3.08;;;8.50;99.90;;;;;;5033978;28;20102;-70
2023/12/09 11:38:04;;;;;;;12.23;3.30;;;8.50;99.90;;;;;;5034497;28;20057;-69
2023/12/09 11:40:31;;;;;;;12.27;3.03;;;8.40;99.90;;;;;;5034553;28;20621;-68
2023/12/09 11:42:59;;;;;;;10.73;3.22;;;8.40;99.90;;;;;;5033193;28;20458;-68
2023/12/09 11:45:27;;;;;;;5.85;2.60;;;8.50;99.90;;;;;;5034922;28;20041;-68
2023/12/09 11:47:53;;;;;;;12.30;4.03;;;8.40;99.90;;;;;;5032719;28;20538;-69
2023/12/09 11:50:19;;;;;;;9.15;3.30;;;8.50;99.90;;;;;;5034442;28;20119;-70
2023/12/09 11:52:46;;;;;;;12.32;3.35;;;8.50;99.90;;;;;;5033330;28;20053;-70
2023/12/09 11:55:14;;;;;;;10.98;2.60;;;8.50;99.90;;;;;;5035196;28;20506;-69
2023/12/09 11:57:40;;;;;;;12.80;3.40;;;8.50;99.90;;;;;;5017999;28;20048;-69
2023/12/09 12:00:09;;;;;;;8.68;2.92;;;8.50;99.90;;;;;;5034847;28;20049;-70
2023/12/09 12:02:35;;;;;;;10.75;2.90;;;8.60;99.90;;;;;;5035207;28;20057;-70
2023/12/09 12:05:02;;;;;;;14.00;3.72;;;8.60;99.90;;;;;;5034769;28;20052;-70
2023/12/09 12:07:27;;;;;;;9.73;3.75;;;8.50;99.90;;;;;;5034264;28;20081;-71
2023/12/09 12:09:53;;;;;;;15.93;3.13;;;8.50;99.90;;;;;;5032824;28;20076;-70
2023/12/09 12:12:19;;;;;;;13.00;3.65;;;8.60;99.90;;;;;;5035121;28;20124;-75
2023/12/09 12:14:46;;;;;;;8.27;2.92;;;8.60;99.90;;;;;;5034816;28;20057;-72
2023/12/09 12:17:12;;;;;;;9.68;3.00;;;8.60;99.90;;;;;;5034774;28;20041;-74
2023/12/09 12:19:39;;;;;;;10.65;3.25;;;8.60;99.90;;;;;;5033427;28;20048;-74
2023/12/09 12:22:05;;;;;;;13.68;3.85;;;8.60;99.90;;;;;;5034357;28;20652;-73
2023/12/09 12:24:41;;;;;;;14.07;3.58;;;8.60;99.90;;;;;;5034600;28;20107;-74
2023/12/09 12:27:07;;;;;;;12.27;2.63;;;8.60;99.90;;;;;;5033783;28;20045;-74
2023/12/09 12:29:33;;;;;;;10.45;2.75;;;8.60;99.90;;;;;;5032878;28;20056;-73
2023/12/09 12:32:00;;;;;;;8.75;2.63;;;8.60;99.90;;;;;;5033605;28;20045;-74
2023/12/09 12:34:26;;;;;;;10.38;2.60;;;8.60;99.90;;;;;;5033916;28;20107;-73
2023/12/09 12:36:52;;;;;;;6.15;2.00;;;8.60;99.90;;;;;;5032257;28;20456;-73